Airfield :
LOGIN :

Register | Disclaimer

   EN    FR    IT 

 










Legend :    VFR   Marginal VFR   IFR   Intensive IFR   Very Intensive IFR
Visi :
Ceiling :
>= 8 km
>= 3000ft
5 to 8 km
1000 to 3000 ft
1500m to 5 km
500 to 1000 ft
800 to 1500m
200 to 500 ft
< 800m
< 200 ft
Symbols :   Thunderstorms  Fog  Heavy snow  Heavy precipitations  Wind > 20 kt
SIGMETs :     Misc.  Thunderstorms  Icing  Turbulence  Mountain Waves  Volcanic Ashes






- Airport Elevation : 1299 ft


EDTY - Adolf Würth

CURRENT METAR :
  • 130920Z 17007KT 120V230 9999 -RASN FEW006 BKN008 OVC026 02/01 Q0978

EXPIRED METARs :
  • 130850Z 14006KT 110V180 7000 -RASN BKN009 OVC033 01/00 Q0978
  • 130820Z 14006KT 120V180 6000 -SN FEW013 BKN019 OVC040 01/M00 Q0978
  • 130750Z 13006KT 110V180 9999 -RA SCT027 BKN036 OVC046 01/M00 Q0978
  • 130720Z 13006KT 080V170 9999 -RASN SCT026 BKN034 OVC039 01/M00 Q0979
  • 130650Z 12005KT 100V160 9999 FEW029 BKN060 01/M01 Q0980

TAF TAF EDTY
Valid from the 13 at 09:00 until the 13 at 18:00 UTC


130800Z 1309/1318 16008KT 9000 FEW010 BKN020
PROB40
TEMPO 1309/1311 3000 RASN BKN008
BECMG 1309/1311 22010KT
BECMG 1314/1316 24015G25KT



MET'MAP, your aeronautical weather chart ! - Copyright ORBIFLY December 2007 - Disclaimer

ORBIFLY MET'MAP TEAM :

Programming & Development : Alexandra Zaïnal
Concept & original design : Baudouin d'Aumeries
Assistance for programming : Marc-Olivier Méhu
Technical & hardware support : Manuel Goepfert

Contact : metmap@orbifly.com




SOURCES & CREDITS :

   NOAA